Wye River — WDE3583 — position and weather

sailwx.info

Track history (hours):
 
Tides and Currents Weather Stations Pressure Air Temp Water Temp Dewpoint Dewpoint Depression Visibility Wind Speed Wind Dir Waves Ship Positions

Wye River

Owner: Vane Line Bunkering, Inc., Baltimore, MD. More information available from US FCC via Universal Licensing System and Coast Guard Vessel Documentation Center.

Last reported at 2017-Apr-18 07:01 UTC. Time now 2017-Apr-30 13:11 UTC.
Position N 25°19' W 080°04'.
Warning: this ship's position is 12 days out of date.

Length 30 m; draft 4.3 m.

Type: Tow > 200 m length. MMSI: 367341190.

Date/timePositionNaut miles runAvg speedWind from/ knotsBaromVisibWave heightAir tempDewpointWater temp
2017-Apr-18 07:01N 25°19' W 080°04'1 6.3
2017-Apr-18 06:52N 25°19' W 080°03'2 6.2
2017-Apr-18 06:29N 25°22' W 080°03'3 6.1
2017-Apr-18 06:00N 25°25' W 080°02'3 6.3
2017-Apr-18 05:30N 25°28' W 080°02'3 6.5
2017-Apr-18 05:00N 25°31' W 080°02'3 6.5
2017-Apr-18 04:30N 25°34' W 080°02'3 6.5
2017-Apr-18 04:00N 25°37' W 080°02'3 6.8
2017-Apr-18 03:30N 25°41' W 080°03'4 8.0
2017-Apr-18 03:00N 25°45' W 080°04'4 8.7
2017-Apr-18 02:30N 25°49' W 080°04'4 8.7
2017-Apr-18 02:00N 25°53' W 080°03'4 8.6
2017-Apr-18 01:30N 25°58' W 080°03'4 8.4
2017-Apr-18 01:00N 26°02' W 080°03'4 8.2
2017-Apr-18 00:30N 26°06' W 080°03'4 8.4
2017-Apr-18 00:00N 26°10' W 080°03'4 8.5
2017-Apr-17 23:30N 26°15' W 080°02'4 8.0
2017-Apr-17 23:00N 26°18' W 080°02'4 7.4
2017-Apr-17 22:30N 26°22' W 080°02'4 7.0
2017-Apr-17 21:59N 26°26' W 080°01'3 6.8
2017-Apr-17 21:30N 26°29' W 080°01'17 6.3
2017-Apr-17 18:43N 26°46' W 079°59'1 5.6
2017-Apr-17 18:29N 26°48' W 079°59'3 5.4
2017-Apr-17 18:00N 26°50' W 079°59'3 5.6
2017-Apr-17 17:30N 26°53' W 079°59'3 5.4
2017-Apr-17 17:00N 26°56' W 079°58'2 4.6
2017-Apr-17 16:30N 26°58' W 079°59'2 4.5
2017-Apr-17 16:00N 27°00' W 079°59'279 7.9
2017-Apr-16 04:46N 31°35' W 080°53'2 8.5
2017-Apr-16 04:30N 31°37' W 080°52'4 8.5
2017-Apr-16 04:00N 31°41' W 080°51'4 8.5
2017-Apr-16 03:30N 31°45' W 080°48'4 8.6
2017-Apr-16 03:00N 31°48' W 080°45'4 8.8
2017-Apr-16 02:30N 31°52' W 080°42'4 8.7
2017-Apr-16 02:00N 31°55' W 080°39'4 8.8
2017-Apr-16 01:30N 31°58' W 080°35'5 9.0
2017-Apr-16 01:00N 32°01' W 080°31'  
2017-Apr-11 06:14N 34°22' W 076°46'3 7.7
2017-Apr-11 05:52N 34°23' W 076°43'3 7.4
2017-Apr-11 05:30N 34°23' W 076°39'4 7.6
2017-Apr-11 05:00N 34°23' W 076°35'4 7.8
2017-Apr-11 04:28N 34°24' W 076°30'6 7.8
2017-Apr-11 03:40N 34°27' W 076°23'4 8.0
2017-Apr-11 03:12N 34°31' W 076°23'2 8.2
2017-Apr-11 03:00N 34°33' W 076°23'4 8.2
2017-Apr-11 02:30N 34°37' W 076°23'4 7.2
2017-Apr-11 02:00N 34°40' W 076°22'4 8.1
2017-Apr-11 01:30N 34°43' W 076°18'306 7.8
2017-Apr-09 10:15N 39°30' W 074°05'3 9.2
2017-Apr-09 09:57N 39°33' W 074°03'5 9.4
2017-Apr-09 09:25N 39°37' W 074°00'4 9.4
2017-Apr-09 09:00N 39°41' W 073°60'5 9.5
2017-Apr-09 08:26N 39°46' W 073°58'41 9.0
2017-Apr-09 03:54N 40°27' W 073°54'5 9.1
2017-Apr-09 03:21N 40°31' W 073°59'3 8.3
2017-Apr-09 03:00N 40°33' W 074°01'510.3
2017-Apr-09 02:30N 40°37' W 074°03'0 1.0
2017-Apr-09 02:00N 40°38' W 074°04'4 7.3
2017-Apr-09 01:30N 40°39' W 074°08'1 1.8
2017-Apr-09 00:58N 40°38' W 074°09'0 0.0
2017-Apr-09 00:22N 40°38' W 074°09'0 0.0
2017-Apr-08 23:59N 40°38' W 074°09'0 0.0
2017-Apr-08 23:30N 40°38' W 074°09'2 3.3
2017-Apr-08 23:00N 40°38' W 074°12'0 0.2
2017-Apr-08 22:30N 40°38' W 074°12'0 0.0
2017-Apr-08 22:00N 40°38' W 074°12'0 0.0
2017-Apr-08 21:30N 40°38' W 074°12'0 0.0
2017-Apr-08 21:00N 40°38' W 074°12'0 0.0
2017-Apr-08 20:30N 40°38' W 074°12'0 0.0
2017-Apr-08 20:00N 40°38' W 074°12'0 0.4
2017-Apr-08 19:26N 40°38' W 074°11'0 0.0
2017-Apr-08 19:00N 40°38' W 074°11'0 0.0
2017-Apr-08 18:30N 40°38' W 074°12'1 1.5
2017-Apr-08 18:00N 40°39' W 074°11'1 2.1
2017-Apr-08 17:30N 40°38' W 074°09'0 0.2
2017-Apr-08 17:00N 40°38' W 074°09'2 4.0
2017-Apr-08 16:30N 40°39' W 074°07'1 2.6
2017-Apr-08 15:59N 40°39' W 074°05'3 5.8
2017-Apr-08 15:30N 40°41' W 074°02'3 6.7
2017-Apr-08 15:00N 40°44' W 074°01'8 8.4
2017-Apr-08 14:00N 40°52' W 073°56'1 1.2
2017-Apr-08 13:30N 40°52' W 073°56'0 0.2
2017-Apr-08 13:00N 40°52' W 073°56'0 0.1
2017-Apr-08 12:30N 40°52' W 073°56'0 0.0
2017-Apr-08 12:00N 40°52' W 073°56'0 0.0
2017-Apr-08 11:30N 40°52' W 073°56'0 0.0
2017-Apr-08 11:00N 40°52' W 073°56'0 0.0
2017-Apr-08 10:30N 40°52' W 073°56'0 0.1
2017-Apr-08 10:00N 40°52' W 073°56'0 0.2
2017-Apr-08 09:30N 40°52' W 073°56'0 0.0
2017-Apr-08 09:00N 40°52' W 073°56'0 0.1
2017-Apr-08 08:30N 40°52' W 073°56'0 0.1
2017-Apr-08 08:00N 40°52' W 073°56'0 0.0
2017-Apr-08 07:30N 40°52' W 073°56'  
Track history (hours):
 
Tides and Currents Weather Stations Pressure Air Temp Water Temp Dewpoint Dewpoint Depression Visibility Wind Speed Wind Dir Waves Ship Positions

Wye River

Owner: Vane Line Bunkering, Inc., Baltimore, MD. More information available from US FCC via Universal Licensing System and Coast Guard Vessel Documentation Center.

Last reported at 2017-Apr-18 07:01 UTC. Time now 2017-Apr-30 13:11 UTC.
Position N 25°19' W 080°04'.
Warning: this ship's position is 12 days out of date.

Length 30 m; draft 4.3 m.

Type: Tow > 200 m length. MMSI: 367341190.

Date/timePositionNaut miles runAvg speedWind from/ knotsBaromVisibWave heightAir tempDewpointWater temp
2017-Apr-18 07:01N 25°19' W 080°04'1 6.3
2017-Apr-18 06:52N 25°19' W 080°03'2 6.2
2017-Apr-18 06:29N 25°22' W 080°03'3 6.1
2017-Apr-18 06:00N 25°25' W 080°02'3 6.3
2017-Apr-18 05:30N 25°28' W 080°02'3 6.5
2017-Apr-18 05:00N 25°31' W 080°02'3 6.5
2017-Apr-18 04:30N 25°34' W 080°02'3 6.5
2017-Apr-18 04:00N 25°37' W 080°02'3 6.8
2017-Apr-18 03:30N 25°41' W 080°03'4 8.0
2017-Apr-18 03:00N 25°45' W 080°04'4 8.7
2017-Apr-18 02:30N 25°49' W 080°04'4 8.7
2017-Apr-18 02:00N 25°53' W 080°03'4 8.6
2017-Apr-18 01:30N 25°58' W 080°03'4 8.4
2017-Apr-18 01:00N 26°02' W 080°03'4 8.2
2017-Apr-18 00:30N 26°06' W 080°03'4 8.4
2017-Apr-18 00:00N 26°10' W 080°03'4 8.5
2017-Apr-17 23:30N 26°15' W 080°02'4 8.0
2017-Apr-17 23:00N 26°18' W 080°02'4 7.4
2017-Apr-17 22:30N 26°22' W 080°02'4 7.0
2017-Apr-17 21:59N 26°26' W 080°01'3 6.8
2017-Apr-17 21:30N 26°29' W 080°01'17 6.3
2017-Apr-17 18:43N 26°46' W 079°59'1 5.6
2017-Apr-17 18:29N 26°48' W 079°59'3 5.4
2017-Apr-17 18:00N 26°50' W 079°59'3 5.6
2017-Apr-17 17:30N 26°53' W 079°59'3 5.4
2017-Apr-17 17:00N 26°56' W 079°58'2 4.6
2017-Apr-17 16:30N 26°58' W 079°59'2 4.5
2017-Apr-17 16:00N 27°00' W 079°59'279 7.9
2017-Apr-16 04:46N 31°35' W 080°53'2 8.5
2017-Apr-16 04:30N 31°37' W 080°52'4 8.5
2017-Apr-16 04:00N 31°41' W 080°51'4 8.5
2017-Apr-16 03:30N 31°45' W 080°48'4 8.6
2017-Apr-16 03:00N 31°48' W 080°45'4 8.8
2017-Apr-16 02:30N 31°52' W 080°42'4 8.7
2017-Apr-16 02:00N 31°55' W 080°39'4 8.8
2017-Apr-16 01:30N 31°58' W 080°35'5 9.0
2017-Apr-16 01:00N 32°01' W 080°31'  
2017-Apr-11 06:14N 34°22' W 076°46'3 7.7
2017-Apr-11 05:52N 34°23' W 076°43'3 7.4
2017-Apr-11 05:30N 34°23' W 076°39'4 7.6
2017-Apr-11 05:00N 34°23' W 076°35'4 7.8
2017-Apr-11 04:28N 34°24' W 076°30'6 7.8
2017-Apr-11 03:40N 34°27' W 076°23'4 8.0
2017-Apr-11 03:12N 34°31' W 076°23'2 8.2
2017-Apr-11 03:00N 34°33' W 076°23'4 8.2
2017-Apr-11 02:30N 34°37' W 076°23'4 7.2
2017-Apr-11 02:00N 34°40' W 076°22'4 8.1
2017-Apr-11 01:30N 34°43' W 076°18'306 7.8
2017-Apr-09 10:15N 39°30' W 074°05'3 9.2
2017-Apr-09 09:57N 39°33' W 074°03'5 9.4
2017-Apr-09 09:25N 39°37' W 074°00'4 9.4
2017-Apr-09 09:00N 39°41' W 073°60'5 9.5
2017-Apr-09 08:26N 39°46' W 073°58'41 9.0
2017-Apr-09 03:54N 40°27' W 073°54'5 9.1
2017-Apr-09 03:21N 40°31' W 073°59'3 8.3
2017-Apr-09 03:00N 40°33' W 074°01'510.3
2017-Apr-09 02:30N 40°37' W 074°03'0 1.0
2017-Apr-09 02:00N 40°38' W 074°04'4 7.3
2017-Apr-09 01:30N 40°39' W 074°08'1 1.8
2017-Apr-09 00:58N 40°38' W 074°09'0 0.0
2017-Apr-09 00:22N 40°38' W 074°09'0 0.0
2017-Apr-08 23:59N 40°38' W 074°09'0 0.0
2017-Apr-08 23:30N 40°38' W 074°09'2 3.3
2017-Apr-08 23:00N 40°38' W 074°12'0 0.2
2017-Apr-08 22:30N 40°38' W 074°12'0 0.0
2017-Apr-08 22:00N 40°38' W 074°12'0 0.0
2017-Apr-08 21:30N 40°38' W 074°12'0 0.0
2017-Apr-08 21:00N 40°38' W 074°12'0 0.0
2017-Apr-08 20:30N 40°38' W 074°12'0 0.0
2017-Apr-08 20:00N 40°38' W 074°12'0 0.4
2017-Apr-08 19:26N 40°38' W 074°11'0 0.0
2017-Apr-08 19:00N 40°38' W 074°11'0 0.0
2017-Apr-08 18:30N 40°38' W 074°12'1 1.5
2017-Apr-08 18:00N 40°39' W 074°11'1 2.1
2017-Apr-08 17:30N 40°38' W 074°09'0 0.2
2017-Apr-08 17:00N 40°38' W 074°09'2 4.0
2017-Apr-08 16:30N 40°39' W 074°07'1 2.6
2017-Apr-08 15:59N 40°39' W 074°05'3 5.8
2017-Apr-08 15:30N 40°41' W 074°02'3 6.7
2017-Apr-08 15:00N 40°44' W 074°01'8 8.4
2017-Apr-08 14:00N 40°52' W 073°56'1 1.2
2017-Apr-08 13:30N 40°52' W 073°56'0 0.2
2017-Apr-08 13:00N 40°52' W 073°56'0 0.1
2017-Apr-08 12:30N 40°52' W 073°56'0 0.0
2017-Apr-08 12:00N 40°52' W 073°56'0 0.0
2017-Apr-08 11:30N 40°52' W 073°56'0 0.0
2017-Apr-08 11:00N 40°52' W 073°56'0 0.0
2017-Apr-08 10:30N 40°52' W 073°56'0 0.1
2017-Apr-08 10:00N 40°52' W 073°56'0 0.2
2017-Apr-08 09:30N 40°52' W 073°56'0 0.0
2017-Apr-08 09:00N 40°52' W 073°56'0 0.1
2017-Apr-08 08:30N 40°52' W 073°56'0 0.1
2017-Apr-08 08:00N 40°52' W 073°56'0 0.0
2017-Apr-08 07:30N 40°52' W 073°56'  

Dump ship's entire track history